^^
Saratoga-Weather Station Historical Data
Daily Summary for March 2, 2020 Units:  Both    English   Metric
Daily Weekly Monthly Yearly Custom
  High: Low: Average:
Temperature: 67.6 °F /  19.8 °C 63 °F /  17.2 °C 64.4 °F /  18 °C
Dew Point: 62.6 °F /  17 °C 59.7 °F /  15.4 °C 61.5 °F /  16.4 °C
Humidity: 92% 83% 90%
Wind Speed: 6.9mph /  11.1km/h - 1.4mph /  2.3km/h
Wind Gust: 8mph /  12.9km/h - -
Wind- - WNW
Pressure: 29.8 in /  1010.5 hPa 29.8 in /  1009.8 hPa -
Precipitation: 0 in /  0.0 mm    
Historical Graphs
 
 
Tabular Data for March 2, 2020
Time Temperature Dew Point Pressure Wind Wind Speed Wind Gust Humidity Rainfall Rate (Hourly) solar
00:02 67.6 °F /  19.8 °C 62.2 °F /  16.8 °C 29.8in /  1009.8hPa WNW 2.9mph /  4.7km/h 6mph /  9.7km/h 83% 0in /  0.0mm 0 W/m2
00:07 67.5 °F /  19.7 °C 62.4 °F /  16.9 °C 29.8in /  1010.2hPa West 0.9mph /  1.4km/h 2mph /  3.2km/h 84% 0in /  0.0mm 0 W/m2
00:12 67.3 °F /  19.6 °C 62.2 °F /  16.8 °C 29.8in /  1010.2hPa West 4mph /  6.4km/h 7mph /  11.3km/h 84% 0in /  0.0mm 0 W/m2
00:17 66.9 °F /  19.4 °C 62.2 °F /  16.8 °C 29.8in /  1010.2hPa WNW 4mph /  6.4km/h 8mph /  12.9km/h 85% 0in /  0.0mm 0 W/m2
00:22 66.7 °F /  19.3 °C 62.4 °F /  16.9 °C 29.8in /  1010.2hPa West 4mph /  6.4km/h 4mph /  6.4km/h 86% 0in /  0.0mm 0 W/m2
00:27 66.6 °F /  19.2 °C 62.6 °F /  17 °C 29.8in /  1010.2hPa West 4mph /  6.4km/h 8mph /  12.9km/h 87% 0in /  0.0mm 0 W/m2
00:32 66.4 °F /  19.1 °C 62.4 °F /  16.9 °C 29.8in /  1010.2hPa NW 0.9mph /  1.4km/h 2mph /  3.2km/h 87% 0in /  0.0mm 0 W/m2
00:37 66 °F /  18.9 °C 62.6 °F /  17 °C 29.8in /  1010.2hPa West 2mph /  3.2km/h 5mph /  8km/h 89% 0in /  0.0mm 0 W/m2
00:42 65.8 °F /  18.8 °C 62.4 °F /  16.9 °C 29.8in /  1010.2hPa WSW 0.9mph /  1.4km/h 2mph /  3.2km/h 89% 0in /  0.0mm 0 W/m2
00:47 65.7 °F /  18.7 °C 62.6 °F /  17 °C 29.8in /  1010.2hPa WSW 0.9mph /  1.4km/h 1mph /  1.6km/h 90% 0in /  0.0mm 0 W/m2
00:52 65.5 °F /  18.6 °C 62.4 °F /  16.9 °C 29.8in /  1010.2hPa Calm     90% 0in /  0.0mm 0 W/m2
00:57 65.3 °F /  18.5 °C 62.2 °F /  16.8 °C 29.8in /  1010.2hPa Calm     90% 0in /  0.0mm 0 W/m2
01:02 65.1 °F /  18.4 °C 62.1 °F /  16.7 °C 29.8in /  1010.2hPa Calm   1mph /  1.6km/h 90% 0in /  0.0mm 0 W/m2
01:07 64.9 °F /  18.3 °C 62.2 °F /  16.8 °C 29.8in /  1010.2hPa Calm   1mph /  1.6km/h 91% 0in /  0.0mm 0 W/m2
01:12 64.9 °F /  18.3 °C 62.2 °F /  16.8 °C 29.8in /  1010.2hPa Calm     91% 0in /  0.0mm 0 W/m2
01:18 64.9 °F /  18.3 °C 62.2 °F /  16.8 °C 29.8in /  1009.8hPa Calm     91% 0in /  0.0mm 0 W/m2
01:23 64.8 °F /  18.2 °C 62.1 °F /  16.7 °C 29.8in /  1010.2hPa Calm   2mph /  3.2km/h 91% 0in /  0.0mm 0 W/m2
01:28 64.8 °F /  18.2 °C 62.1 °F /  16.7 °C 29.8in /  1009.8hPa West 2mph /  3.2km/h 6mph /  9.7km/h 91% 0in /  0.0mm 0 W/m2
01:33 64.8 °F /  18.2 °C 62.1 °F /  16.7 °C 29.8in /  1010.2hPa West 0.9mph /  1.4km/h 1mph /  1.6km/h 91% 0in /  0.0mm 0 W/m2
01:38 64.6 °F /  18.1 °C 62.2 °F /  16.8 °C 29.8in /  1010.2hPa Calm   3mph /  4.8km/h 92% 0in /  0.0mm 0 W/m2
01:43 64.6 °F /  18.1 °C 62.2 °F /  16.8 °C 29.8in /  1009.8hPa Calm   1mph /  1.6km/h 92% 0in /  0.0mm 0 W/m2
01:48 64.4 °F /  18 °C 62.1 °F /  16.7 °C 29.8in /  1009.8hPa Calm   1mph /  1.6km/h 92% 0in /  0.0mm 0 W/m2
01:53 64.4 °F /  18 °C 62.1 °F /  16.7 °C 29.8in /  1009.8hPa Calm     92% 0in /  0.0mm 0 W/m2
01:58 64.4 °F /  18 °C 62.1 °F /  16.7 °C 29.8in /  1009.8hPa Calm   1mph /  1.6km/h 92% 0in /  0.0mm 0 W/m2
02:03 64.4 °F /  18 °C 62.1 °F /  16.7 °C 29.8in /  1010.2hPa NW 0.9mph /  1.4km/h 2mph /  3.2km/h 92% 0in /  0.0mm 0 W/m2
02:08 64.4 °F /  18 °C 62.1 °F /  16.7 °C 29.8in /  1009.8hPa NW 0.9mph /  1.4km/h 1mph /  1.6km/h 92% 0in /  0.0mm 0 W/m2
02:13 64.6 °F /  18.1 °C 62.2 °F /  16.8 °C 29.8in /  1010.2hPa North 2mph /  3.2km/h 2mph /  3.2km/h 92% 0in /  0.0mm 0 W/m2
02:23 64.8 °F /  18.2 °C 62.4 °F /  16.9 °C 29.8in /  1010.2hPa Calm   1mph /  1.6km/h 92% 0in /  0.0mm 0 W/m2
02:28 64.6 °F /  18.1 °C 62.2 °F /  16.8 °C 29.8in /  1010.2hPa North 0.9mph /  1.4km/h 1mph /  1.6km/h 92% 0in /  0.0mm 0 W/m2
02:34 64.6 °F /  18.1 °C 62.2 °F /  16.8 °C 29.8in /  1010.2hPa Calm     92% 0in /  0.0mm 0 W/m2
02:39 64.6 °F /  18.1 °C 62.2 °F /  16.8 °C 29.8in /  1010.2hPa Calm   1mph /  1.6km/h 92% 0in /  0.0mm 0 W/m2
02:44 64.6 °F /  18.1 °C 62.2 °F /  16.8 °C 29.8in /  1010.2hPa North 0.9mph /  1.4km/h 1mph /  1.6km/h 92% 0in /  0.0mm 0 W/m2
02:49 64.6 °F /  18.1 °C 62.2 °F /  16.8 °C 29.8in /  1010.2hPa Calm   3mph /  4.8km/h 92% 0in /  0.0mm 0 W/m2
02:54 64.6 °F /  18.1 °C 62.2 °F /  16.8 °C 29.8in /  1009.8hPa NW 0.9mph /  1.4km/h 2mph /  3.2km/h 92% 0in /  0.0mm 0 W/m2
02:59 64.6 °F /  18.1 °C 62.2 °F /  16.8 °C 29.8in /  1009.8hPa NW 0.9mph /  1.4km/h 2mph /  3.2km/h 92% 0in /  0.0mm 0 W/m2
03:04 64.6 °F /  18.1 °C 61.9 °F /  16.6 °C 29.8in /  1009.8hPa Calm   2mph /  3.2km/h 91% 0in /  0.0mm 0 W/m2
03:09 64.6 °F /  18.1 °C 61.9 °F /  16.6 °C 29.8in /  1010.2hPa NNW 0.9mph /  1.4km/h 1mph /  1.6km/h 91% 0in /  0.0mm 0 W/m2
03:14 64.6 °F /  18.1 °C 61.9 °F /  16.6 °C 29.8in /  1010.2hPa NNW 0.9mph /  1.4km/h 1mph /  1.6km/h 91% 0in /  0.0mm 0 W/m2
03:19 64.6 °F /  18.1 °C 61.9 °F /  16.6 °C 29.8in /  1009.8hPa Calm   1mph /  1.6km/h 91% 0in /  0.0mm 0 W/m2
03:24 64.6 °F /  18.1 °C 61.9 °F /  16.6 °C 29.8in /  1009.8hPa Calm   2mph /  3.2km/h 91% 0in /  0.0mm 0 W/m2
03:29 64.6 °F /  18.1 °C 61.9 °F /  16.6 °C 29.8in /  1009.8hPa NNW 2.9mph /  4.7km/h 4mph /  6.4km/h 91% 0in /  0.0mm 0 W/m2
03:34 64.4 °F /  18 °C 61.7 °F /  16.5 °C 29.8in /  1009.8hPa Calm     91% 0in /  0.0mm 0 W/m2
03:39 64.4 °F /  18 °C 61.7 °F /  16.5 °C 29.8in /  1009.8hPa WNW 4mph /  6.4km/h 4mph /  6.4km/h 91% 0in /  0.0mm 0 W/m2
03:44 64.2 °F /  17.9 °C 61.5 °F /  16.4 °C 29.8in /  1009.8hPa West 2mph /  3.2km/h 4mph /  6.4km/h 91% 0in /  0.0mm 0 W/m2
03:49 64.2 °F /  17.9 °C 61.5 °F /  16.4 °C 29.8in /  1009.8hPa NW 2.9mph /  4.7km/h 3mph /  4.8km/h 91% 0in /  0.0mm 0 W/m2
03:54 64.4 °F /  18 °C 61.7 °F /  16.5 °C 29.8in /  1009.8hPa NW 0.9mph /  1.4km/h 2mph /  3.2km/h 91% 0in /  0.0mm 0 W/m2
03:59 64.6 °F /  18.1 °C 61.9 °F /  16.6 °C 29.8in /  1009.8hPa NW 2mph /  3.2km/h 4mph /  6.4km/h 91% 0in /  0.0mm 0 W/m2
04:04 64.6 °F /  18.1 °C 61.5 °F /  16.4 °C 29.8in /  1009.8hPa East 0.9mph /  1.4km/h 2mph /  3.2km/h 90% 0in /  0.0mm 0 W/m2
04:09 64.4 °F /  18 °C 61.3 °F /  16.3 °C 29.8in /  1009.8hPa ENE 0.9mph /  1.4km/h 2mph /  3.2km/h 90% 0in /  0.0mm 0 W/m2
04:14 64.2 °F /  17.9 °C 61.2 °F /  16.2 °C 29.8in /  1009.8hPa Calm   1mph /  1.6km/h 90% 0in /  0.0mm 0 W/m2
04:25 64 °F /  17.8 °C 61 °F /  16.1 °C 29.8in /  1009.8hPa NNW 2.9mph /  4.7km/h 7mph /  11.3km/h 90% 0in /  0.0mm 0 W/m2
04:30 64 °F /  17.8 °C 61 °F /  16.1 °C 29.8in /  1009.8hPa Calm   2mph /  3.2km/h 90% 0in /  0.0mm 0 W/m2
04:35 63.9 °F /  17.7 °C 61.2 °F /  16.2 °C 29.8in /  1009.8hPa NNW 0.9mph /  1.4km/h 6mph /  9.7km/h 91% 0in /  0.0mm 0 W/m2
04:40 63.9 °F /  17.7 °C 61.2 °F /  16.2 °C 29.8in /  1009.8hPa Calm   2mph /  3.2km/h 91% 0in /  0.0mm 0 W/m2
04:45 63.9 °F /  17.7 °C 61.2 °F /  16.2 °C 29.8in /  1010.2hPa WSW 0.9mph /  1.4km/h 5mph /  8km/h 91% 0in /  0.0mm 0 W/m2
04:50 63.9 °F /  17.7 °C 60.8 °F /  16 °C 29.8in /  1010.2hPa Calm   3mph /  4.8km/h 90% 0in /  0.0mm 0 W/m2
05:00 63.9 °F /  17.7 °C 60.8 °F /  16 °C 29.8in /  1010.2hPa Calm   2mph /  3.2km/h 90% 0in /  0.0mm 0 W/m2
05:05 63.9 °F /  17.7 °C 60.8 °F /  16 °C 29.8in /  1010.2hPa Calm   2mph /  3.2km/h 90% 0in /  0.0mm 0 W/m2
05:10 63.9 °F /  17.7 °C 60.8 °F /  16 °C 29.8in /  1010.2hPa Calm   2mph /  3.2km/h 90% 0in /  0.0mm 0 W/m2
05:15 63.7 °F /  17.6 °C 60.6 °F /  15.9 °C 29.8in /  1010.2hPa NW 2mph /  3.2km/h 4mph /  6.4km/h 90% 0in /  0.0mm 0 W/m2
05:20 63.7 °F /  17.6 °C 61 °F /  16.1 °C 29.8in /  1010.2hPa North 0.9mph /  1.4km/h 1mph /  1.6km/h 91% 0in /  0.0mm 0 W/m2
05:25 63.5 °F /  17.5 °C 60.8 °F /  16 °C 29.8in /  1010.2hPa WSW 2.9mph /  4.7km/h 3mph /  4.8km/h 91% 0in /  0.0mm 0 W/m2
05:30 63.3 °F /  17.4 °C 60.6 °F /  15.9 °C 29.8in /  1010.2hPa WNW 2mph /  3.2km/h 2mph /  3.2km/h 91% 0in /  0.0mm 0 W/m2
05:35 63.3 °F /  17.4 °C 60.3 °F /  15.7 °C 29.8in /  1010.2hPa WNW 6.9mph /  11.1km/h 8mph /  12.9km/h 90% 0in /  0.0mm 0 W/m2
05:40 63.3 °F /  17.4 °C 60.3 °F /  15.7 °C 29.8in /  1010.2hPa WNW 4mph /  6.4km/h 5mph /  8km/h 90% 0in /  0.0mm 5 W/m2
05:45 63.1 °F /  17.3 °C 60.1 °F /  15.6 °C 29.8in /  1010.2hPa SW 2mph /  3.2km/h 8mph /  12.9km/h 90% 0in /  0.0mm 5 W/m2
05:50 63.1 °F /  17.3 °C 60.1 °F /  15.6 °C 29.8in /  1010.2hPa NW 0.9mph /  1.4km/h 2mph /  3.2km/h 90% 0in /  0.0mm 7 W/m2
05:55 63 °F /  17.2 °C 59.9 °F /  15.5 °C 29.8in /  1010.2hPa WNW 2.9mph /  4.7km/h 3mph /  4.8km/h 90% 0in /  0.0mm 12 W/m2
06:00 63 °F /  17.2 °C 60.3 °F /  15.7 °C 29.8in /  1010.2hPa West 2.9mph /  4.7km/h 7mph /  11.3km/h 91% 0in /  0.0mm 14 W/m2
06:10 63 °F /  17.2 °C 60.3 °F /  15.7 °C 29.8in /  1010.2hPa NW 2.9mph /  4.7km/h 7mph /  11.3km/h 91% 0in /  0.0mm 30 W/m2
06:15 63 °F /  17.2 °C 60.3 °F /  15.7 °C 29.8in /  1010.2hPa WNW 0.9mph /  1.4km/h 5mph /  8km/h 91% 0in /  0.0mm 30 W/m2
06:20 63 °F /  17.2 °C 59.9 °F /  15.5 °C 29.8in /  1010.2hPa West 4mph /  6.4km/h 4mph /  6.4km/h 90% 0in /  0.0mm 30 W/m2
06:25 63 °F /  17.2 °C 59.9 °F /  15.5 °C 29.8in /  1010.2hPa WNW 2mph /  3.2km/h 4mph /  6.4km/h 90% 0in /  0.0mm 42 W/m2
06:30 63 °F /  17.2 °C 59.9 °F /  15.5 °C 29.8in /  1010.2hPa West 2mph /  3.2km/h 4mph /  6.4km/h 90% 0in /  0.0mm 49 W/m2
06:35 63 °F /  17.2 °C 59.7 °F /  15.4 °C 29.8in /  1010.2hPa West 2mph /  3.2km/h 7mph /  11.3km/h 89% 0in /  0.0mm 62 W/m2
06:40 63 °F /  17.2 °C 59.7 °F /  15.4 °C 29.8in /  1010.2hPa NW 2mph /  3.2km/h 2mph /  3.2km/h 89% 0in /  0.0mm 70 W/m2
06:45 63.1 °F /  17.3 °C 59.9 °F /  15.5 °C 29.8in /  1010.2hPa West 2.9mph /  4.7km/h 4mph /  6.4km/h 89% 0in /  0.0mm 77 W/m2
06:50 63.3 °F /  17.4 °C 59.7 °F /  15.4 °C 29.8in /  1010.2hPa NW 4mph /  6.4km/h 5mph /  8km/h 88% 0in /  0.0mm 58 W/m2
06:55 63.3 °F /  17.4 °C 59.7 °F /  15.4 °C 29.8in /  1010.5hPa SSE 6mph /  9.7km/h 7mph /  11.3km/h 88% 0in /  0.0mm 49 W/m2
07:00 63.3 °F /  17.4 °C 59.7 °F /  15.4 °C 29.8in /  1010.5hPa WSW 0.9mph /  1.4km/h 3mph /  4.8km/h 88% 0in /  0.0mm 51 W/m2
Juneau County Weather
Compliments of Weather Underground - 4 mb